createdAt,value
2022-10-10T00:00:04.064Z,6.75
2022-10-10T00:01:03.991Z,6.75
2022-10-10T00:02:04.132Z,6.81
2022-10-10T00:03:04.153Z,6.81
2022-10-10T00:04:04.151Z,6.81
2022-10-10T00:05:04.307Z,6.81
2022-10-10T00:06:05.112Z,6.81
2022-10-10T00:07:04.072Z,6.88
2022-10-10T00:08:04.150Z,6.88
2022-10-10T00:09:04.222Z,6.88
2022-10-10T00:10:04.410Z,6.88
2022-10-10T00:11:03.608Z,6.88
2022-10-10T00:12:03.511Z,6.94
2022-10-10T00:13:03.509Z,7.00
2022-10-10T00:14:03.826Z,7.00
2022-10-10T00:15:03.840Z,7.00
2022-10-10T00:16:03.911Z,7.00
2022-10-10T00:17:03.904Z,7.00
2022-10-10T00:18:03.917Z,7.00
2022-10-10T00:19:03.910Z,7.00
2022-10-10T00:20:03.992Z,7.00
2022-10-10T00:21:03.983Z,7.00
2022-10-10T00:22:04.561Z,7.00
2022-10-10T00:23:04.471Z,7.06
2022-10-10T00:24:04.470Z,7.06
2022-10-10T00:25:04.505Z,7.06
2022-10-10T00:26:06.928Z,7.06
2022-10-10T00:27:03.589Z,7.06
2022-10-10T00:28:03.519Z,7.06
2022-10-10T00:29:03.504Z,7.06
2022-10-10T00:30:03.592Z,7.06
2022-10-10T00:31:03.582Z,7.12
2022-10-10T00:32:04.151Z,7.06
2022-10-10T00:33:04.148Z,7.12
2022-10-10T00:34:04.139Z,7.12
2022-10-10T00:35:04.630Z,7.12
2022-10-10T00:36:03.601Z,7.12
2022-10-10T00:37:03.668Z,7.12
2022-10-10T00:38:03.587Z,7.12
2022-10-10T00:39:03.583Z,7.12
2022-10-10T00:40:03.747Z,7.12
2022-10-10T00:41:03.688Z,7.12
2022-10-10T00:42:03.665Z,7.19
2022-10-10T00:43:03.831Z,7.19
2022-10-10T00:44:03.903Z,7.31
2022-10-10T00:45:03.909Z,7.31
2022-10-10T00:46:04.071Z,7.31
2022-10-10T00:47:04.159Z,7.31
2022-10-10T00:48:04.137Z,7.31
2022-10-10T00:49:04.231Z,7.31
2022-10-10T00:50:04.238Z,7.31
2022-10-10T00:51:04.148Z,7.38
2022-10-10T00:52:04.230Z,7.38
2022-10-10T00:53:04.147Z,7.38
2022-10-10T00:54:04.225Z,7.38
2022-10-10T00:55:04.216Z,7.38
2022-10-10T00:56:04.313Z,7.38
2022-10-10T00:57:04.385Z,7.38
2022-10-10T00:58:04.319Z,7.38
2022-10-10T00:59:04.305Z,7.44
2022-10-10T01:00:03.518Z,7.44
2022-10-10T01:01:03.547Z,7.44
2022-10-10T01:02:03.591Z,7.50
2022-10-10T01:03:03.505Z,7.50
2022-10-10T01:04:03.506Z,7.50
2022-10-10T01:05:03.609Z,7.50
2022-10-10T01:06:03.590Z,7.50
2022-10-10T01:07:03.514Z,7.50
2022-10-10T01:08:03.517Z,7.50
2022-10-10T01:09:03.588Z,7.50
2022-10-10T01:10:03.592Z,7.56
2022-10-10T01:11:03.680Z,7.56
2022-10-10T01:12:03.681Z,7.56
2022-10-10T01:13:03.676Z,7.56
2022-10-10T01:14:03.746Z,7.62
2022-10-10T01:15:03.697Z,7.62
2022-10-10T01:16:03.740Z,7.69
2022-10-10T01:17:03.907Z,7.69
2022-10-10T01:18:03.988Z,7.69
2022-10-10T01:19:03.996Z,7.75
2022-10-10T01:20:03.902Z,7.75
2022-10-10T01:21:04.072Z,7.75
2022-10-10T01:22:04.069Z,7.75
2022-10-10T01:23:04.069Z,7.75
2022-10-10T01:24:04.153Z,7.75
2022-10-10T01:25:04.078Z,7.81
2022-10-10T01:26:04.081Z,7.81
2022-10-10T01:27:04.070Z,7.81
2022-10-10T01:28:04.082Z,7.81
2022-10-10T01:29:04.083Z,7.81
2022-10-10T01:30:04.154Z,7.81
2022-10-10T01:31:04.074Z,7.81
2022-10-10T01:32:04.159Z,7.88
2022-10-10T01:33:04.154Z,7.88
2022-10-10T01:34:05.311Z,7.88
2022-10-10T01:35:04.246Z,7.88
2022-10-10T01:36:05.603Z,7.88
2022-10-10T01:37:03.688Z,7.88
2022-10-10T01:38:03.667Z,7.88
2022-10-10T01:39:03.679Z,7.94
2022-10-10T01:40:03.761Z,7.94
2022-10-10T01:41:03.754Z,8.00
2022-10-10T01:42:03.767Z,8.00
2022-10-10T01:43:03.685Z,8.00
2022-10-10T01:44:03.665Z,8.00
2022-10-10T01:45:03.837Z,8.00
2022-10-10T01:46:03.905Z,8.00
2022-10-10T01:47:03.906Z,8.06
2022-10-10T01:48:03.991Z,8.06
2022-10-10T01:49:03.920Z,8.06
2022-10-10T01:50:03.830Z,8.06
2022-10-10T01:51:03.917Z,8.06
2022-10-10T01:52:04.074Z,8.06
2022-10-10T01:53:04.068Z,8.12
2022-10-10T01:54:04.067Z,8.12
2022-10-10T01:55:04.142Z,8.12
2022-10-10T01:56:04.223Z,8.12
2022-10-10T01:57:04.142Z,8.12
2022-10-10T01:58:04.227Z,8.12
2022-10-10T01:59:04.225Z,8.19
2022-10-10T02:00:04.222Z,8.19
2022-10-10T02:01:04.271Z,8.19
2022-10-10T02:02:04.226Z,8.19
2022-10-10T02:03:05.503Z,8.19
2022-10-10T02:04:03.505Z,8.19
2022-10-10T02:05:03.590Z,8.25
2022-10-10T02:06:03.747Z,8.25
2022-10-10T02:08:04.956Z,8.25
2022-10-10T02:09:04.081Z,8.25
2022-10-10T02:10:04.074Z,8.31
2022-10-10T02:12:04.267Z,8.31
2022-10-10T02:13:04.328Z,8.31
2022-10-10T02:14:04.317Z,8.38
2022-10-10T02:15:03.586Z,8.38
2022-10-10T02:16:03.592Z,8.38
2022-10-10T02:17:03.669Z,8.38
2022-10-10T02:18:03.667Z,8.38
2022-10-10T02:19:03.741Z,8.44
2022-10-10T02:20:03.744Z,8.44
2022-10-10T02:21:03.828Z,8.44
2022-10-10T02:22:04.002Z,8.44
2022-10-10T02:23:04.222Z,8.44
2022-10-10T02:24:04.143Z,8.50
2022-10-10T02:25:04.228Z,8.50
2022-10-10T02:26:04.483Z,8.50
2022-10-10T02:27:04.385Z,8.50
2022-10-10T02:28:04.422Z,8.50
2022-10-10T02:29:06.953Z,8.50
2022-10-10T02:30:03.748Z,8.50
2022-10-10T02:31:03.904Z,8.50
2022-10-10T02:32:03.906Z,8.56
2022-10-10T02:33:03.981Z,8.56
2022-10-10T02:34:04.086Z,8.62
2022-10-10T02:35:04.235Z,8.62
2022-10-10T02:36:04.231Z,8.62
2022-10-10T02:37:04.138Z,8.69
2022-10-10T02:38:04.144Z,8.69
2022-10-10T02:39:04.256Z,8.69
2022-10-10T02:40:04.310Z,8.62
2022-10-10T02:41:04.301Z,8.69
2022-10-10T02:42:04.313Z,8.69
2022-10-10T02:43:04.391Z,8.69
2022-10-10T02:44:03.594Z,8.69
2022-10-10T02:45:03.519Z,8.69
2022-10-10T02:46:03.593Z,8.69
2022-10-10T02:47:03.593Z,8.69
2022-10-10T02:48:03.582Z,8.69
2022-10-10T02:49:03.661Z,8.69
2022-10-10T02:50:03.619Z,8.69
2022-10-10T02:51:03.666Z,8.75
2022-10-10T02:52:03.745Z,8.75
2022-10-10T02:53:03.680Z,8.75
2022-10-10T02:54:03.752Z,8.75
2022-10-10T02:55:03.757Z,8.75
2022-10-10T02:56:03.669Z,8.75
2022-10-10T02:57:03.744Z,8.81
2022-10-10T02:58:03.666Z,8.81
2022-10-10T02:59:03.827Z,8.81
2022-10-10T03:00:03.932Z,8.81
2022-10-10T03:01:03.956Z,8.81
2022-10-10T03:02:04.105Z,8.81
2022-10-10T03:03:04.160Z,8.81
2022-10-10T03:04:04.146Z,8.81
2022-10-10T03:05:05.879Z,8.81
2022-10-10T03:06:04.148Z,8.81
2022-10-10T03:07:04.230Z,8.81
2022-10-10T03:08:06.874Z,8.81
2022-10-10T03:09:04.380Z,8.81
2022-10-10T03:10:04.386Z,8.81
2022-10-10T03:11:04.336Z,8.81
2022-10-10T03:12:04.408Z,8.81
2022-10-10T03:13:04.388Z,8.81
2022-10-10T03:14:03.503Z,8.81
2022-10-10T03:15:05.857Z,8.81
2022-10-10T03:16:03.508Z,8.81
2022-10-10T03:17:03.599Z,8.81
2022-10-10T03:18:03.506Z,8.75
2022-10-10T03:19:03.506Z,8.75
2022-10-10T03:20:03.504Z,8.75
2022-10-10T03:21:03.507Z,8.75
2022-10-10T03:22:04.492Z,8.75
2022-10-10T03:23:03.513Z,8.69
2022-10-10T03:24:03.519Z,8.69
2022-10-10T03:25:04.475Z,8.69
2022-10-10T03:26:04.469Z,8.69
2022-10-10T03:27:03.510Z,8.69
2022-10-10T03:28:03.499Z,8.69
2022-10-10T03:29:03.681Z,8.69
2022-10-10T03:30:03.918Z,8.69
2022-10-10T03:31:03.833Z,8.69
2022-10-10T03:32:06.025Z,8.62
2022-10-10T03:33:03.983Z,8.62
2022-10-10T03:34:03.998Z,8.62
2022-10-10T03:35:04.145Z,8.62
2022-10-10T03:36:04.069Z,8.56
2022-10-10T03:37:04.226Z,8.56
2022-10-10T03:38:04.189Z,8.56
2022-10-10T03:39:04.155Z,8.56
2022-10-10T03:40:04.139Z,8.56
2022-10-10T03:41:04.229Z,8.50
2022-10-10T03:42:04.387Z,8.50
2022-10-10T03:43:04.386Z,8.50
2022-10-10T03:44:04.387Z,8.50
2022-10-10T03:45:04.400Z,8.50
2022-10-10T03:46:04.414Z,8.50
2022-10-10T03:47:04.387Z,8.50
2022-10-10T03:48:04.479Z,8.50
2022-10-10T03:49:04.472Z,8.44
2022-10-10T03:50:03.588Z,8.44
2022-10-10T03:51:03.516Z,8.44
2022-10-10T03:52:03.584Z,8.44
2022-10-10T03:53:03.589Z,8.44
2022-10-10T03:54:03.595Z,8.44
2022-10-10T03:55:03.506Z,8.38
2022-10-10T03:56:03.665Z,8.38
2022-10-10T03:57:03.660Z,8.38
2022-10-10T03:58:03.744Z,8.38
2022-10-10T03:59:04.727Z,8.38
2022-10-10T04:00:03.747Z,8.38
2022-10-10T04:01:03.820Z,8.38
2022-10-10T04:02:03.751Z,8.38
2022-10-10T04:03:03.750Z,8.38
2022-10-10T04:04:03.823Z,8.38
2022-10-10T04:05:03.908Z,8.38
2022-10-10T04:06:03.906Z,8.38
2022-10-10T04:07:03.993Z,8.38
2022-10-10T04:08:04.077Z,8.31
2022-10-10T04:09:03.995Z,8.31
2022-10-10T04:10:04.073Z,8.38
2022-10-10T04:11:04.222Z,8.38
2022-10-10T04:12:04.232Z,8.38
2022-10-10T04:13:04.304Z,8.38
2022-10-10T04:14:04.384Z,8.38
2022-10-10T04:15:04.391Z,8.38
2022-10-10T04:16:04.304Z,8.38
2022-10-10T04:17:04.389Z,8.38
2022-10-10T04:18:04.472Z,8.44
2022-10-10T04:19:03.510Z,8.44
2022-10-10T04:20:03.590Z,8.44
2022-10-10T04:21:03.498Z,8.44
2022-10-10T04:22:05.235Z,8.44
2022-10-10T04:23:03.749Z,8.44
2022-10-10T04:24:03.745Z,8.44
2022-10-10T04:25:04.017Z,8.44
2022-10-10T04:26:03.905Z,8.44
2022-10-10T04:27:03.916Z,8.38
2022-10-10T04:28:03.818Z,8.38
2022-10-10T04:29:03.914Z,8.44
2022-10-10T04:30:04.549Z,8.44
2022-10-10T04:31:03.593Z,8.44
2022-10-10T04:32:03.578Z,8.44
2022-10-10T04:33:04.790Z,8.44
2022-10-10T04:34:03.905Z,8.44
2022-10-10T04:35:04.006Z,8.44
2022-10-10T04:36:04.065Z,8.44
2022-10-10T04:37:04.070Z,8.44
2022-10-10T04:38:03.981Z,8.44
2022-10-10T04:39:03.986Z,8.44
2022-10-10T04:40:04.239Z,8.44
2022-10-10T04:41:04.242Z,8.44
2022-10-10T04:42:04.305Z,8.44
2022-10-10T04:43:04.234Z,8.44
2022-10-10T04:44:04.312Z,8.44
2022-10-10T04:45:04.498Z,8.44
2022-10-10T04:46:04.464Z,8.44
2022-10-10T04:47:03.504Z,8.44
2022-10-10T04:48:03.598Z,8.50
2022-10-10T04:49:03.672Z,8.50
2022-10-10T04:50:03.592Z,8.56
2022-10-10T04:51:03.670Z,8.56
2022-10-10T04:52:03.616Z,8.56
2022-10-10T04:53:03.586Z,8.56
2022-10-10T04:54:03.588Z,8.56
2022-10-10T04:55:03.501Z,8.56
2022-10-10T04:56:03.679Z,8.56
2022-10-10T04:57:03.608Z,8.56
2022-10-10T04:58:03.673Z,8.56
2022-10-10T04:59:03.760Z,8.56
2022-10-10T05:00:03.668Z,8.56
2022-10-10T05:01:03.866Z,8.56
2022-10-10T05:02:03.921Z,8.56
2022-10-10T05:03:03.911Z,8.62
2022-10-10T05:04:03.759Z,8.62
2022-10-10T05:05:03.911Z,8.62
2022-10-10T05:06:03.907Z,8.62
2022-10-10T05:07:03.756Z,8.62
2022-10-10T05:08:03.917Z,8.56
2022-10-10T05:09:03.824Z,8.62
2022-10-10T05:10:03.904Z,8.69
2022-10-10T05:11:04.064Z,8.69
2022-10-10T05:12:04.003Z,8.62
2022-10-10T05:13:03.990Z,8.62
2022-10-10T05:14:04.068Z,8.69
2022-10-10T05:15:04.159Z,8.69
2022-10-10T05:16:04.233Z,8.69
2022-10-10T05:17:04.313Z,8.69
2022-10-10T05:18:04.317Z,8.69
2022-10-10T05:19:04.338Z,8.69
2022-10-10T05:20:04.387Z,8.69
2022-10-10T05:21:04.403Z,8.75
2022-10-10T05:22:03.599Z,8.75
2022-10-10T05:23:03.516Z,8.75
2022-10-10T05:24:03.501Z,8.75
2022-10-10T05:25:03.685Z,8.75
2022-10-10T05:26:03.756Z,8.75
2022-10-10T05:27:03.748Z,8.75
2022-10-10T05:28:03.744Z,8.75
2022-10-10T05:29:03.658Z,8.75
2022-10-10T05:30:03.741Z,8.75
2022-10-10T05:31:03.761Z,8.75
2022-10-10T05:32:07.780Z,8.75
2022-10-10T05:33:03.750Z,8.75
2022-10-10T05:34:03.751Z,8.75
2022-10-10T05:35:03.754Z,8.81
2022-10-10T05:36:05.036Z,8.75
2022-10-10T05:37:04.787Z,8.81
2022-10-10T05:38:03.746Z,8.81
2022-10-10T05:39:03.829Z,8.81
2022-10-10T05:40:03.825Z,8.81
2022-10-10T05:41:03.758Z,8.81
2022-10-10T05:42:03.739Z,8.81
2022-10-10T05:43:03.920Z,8.75
2022-10-10T05:44:03.743Z,8.75
2022-10-10T05:45:03.742Z,8.75
2022-10-10T05:46:03.907Z,8.75
2022-10-10T05:47:03.825Z,8.75
2022-10-10T05:48:03.923Z,8.75
2022-10-10T05:49:03.745Z,8.75
2022-10-10T05:50:04.076Z,8.75
2022-10-10T05:51:04.082Z,8.69
2022-10-10T05:52:04.713Z,8.69
2022-10-10T05:53:03.824Z,8.69
2022-10-10T05:54:03.830Z,8.69
2022-10-10T05:55:03.914Z,8.69
2022-10-10T05:56:03.825Z,8.69
2022-10-10T05:57:03.834Z,8.69
2022-10-10T05:58:03.763Z,8.69
2022-10-10T05:59:03.846Z,8.69
2022-10-10T06:00:03.877Z,8.69
2022-10-10T06:01:03.912Z,8.69
2022-10-10T06:02:04.101Z,8.69
2022-10-10T06:03:04.163Z,8.69
2022-10-10T06:04:03.996Z,8.69
2022-10-10T06:05:03.989Z,8.69
2022-10-10T06:06:04.155Z,8.69
2022-10-10T06:07:04.158Z,8.69
2022-10-10T06:08:09.163Z,8.69
2022-10-10T06:09:04.240Z,8.75
2022-10-10T06:10:04.392Z,8.75
2022-10-10T06:11:04.314Z,8.75
2022-10-10T06:12:04.402Z,8.75
2022-10-10T06:13:04.468Z,8.75
2022-10-10T06:14:04.473Z,8.75
2022-10-10T06:15:04.409Z,8.81
2022-10-10T06:16:04.466Z,8.81
2022-10-10T06:17:03.584Z,8.81
2022-10-10T06:18:03.835Z,8.81
2022-10-10T06:19:03.989Z,8.81
2022-10-10T06:20:04.076Z,8.88
2022-10-10T06:21:04.031Z,8.88
2022-10-10T06:22:03.983Z,8.88
2022-10-10T06:23:04.071Z,8.88
2022-10-10T06:24:04.068Z,8.88
2022-10-10T06:25:04.319Z,8.88
2022-10-10T06:26:04.238Z,8.88
2022-10-10T06:27:04.234Z,8.94
2022-10-10T06:28:04.146Z,8.94
2022-10-10T06:29:04.228Z,9.00
2022-10-10T06:30:04.229Z,9.00
2022-10-10T06:31:04.226Z,9.06
2022-10-10T06:32:04.222Z,9.12
2022-10-10T06:33:04.304Z,9.12
2022-10-10T06:34:03.666Z,9.25
2022-10-10T06:35:03.663Z,9.31
2022-10-10T06:36:03.750Z,9.38
2022-10-10T06:37:03.923Z,9.44
2022-10-10T06:38:03.843Z,9.50
2022-10-10T06:39:03.752Z,9.56
2022-10-10T06:40:03.915Z,9.75
2022-10-10T06:41:04.003Z,9.88
2022-10-10T06:42:03.997Z,9.94
2022-10-10T06:43:04.000Z,10.06
2022-10-10T06:44:04.179Z,10.12
2022-10-10T06:45:04.081Z,10.19
2022-10-10T06:46:04.142Z,10.31
2022-10-10T06:47:04.232Z,10.38
2022-10-10T06:48:04.161Z,10.44
2022-10-10T06:49:04.066Z,10.50
2022-10-10T06:50:04.151Z,10.56
2022-10-10T06:51:04.142Z,10.69
2022-10-10T06:52:04.270Z,10.75
2022-10-10T06:53:04.146Z,10.81
2022-10-10T06:54:04.144Z,10.88
2022-10-10T06:55:04.162Z,10.94
2022-10-10T06:56:04.147Z,11.12
2022-10-10T06:57:04.227Z,11.25
2022-10-10T06:58:04.235Z,11.31
2022-10-10T06:59:04.228Z,11.38
2022-10-10T07:00:04.347Z,11.44
2022-10-10T07:01:04.308Z,11.56
2022-10-10T07:02:04.304Z,11.62
2022-10-10T07:03:04.234Z,11.69
2022-10-10T07:04:04.233Z,11.69
2022-10-10T07:05:04.243Z,11.69
2022-10-10T07:06:04.255Z,11.75
2022-10-10T07:07:04.245Z,11.75
2022-10-10T07:08:04.157Z,11.75
2022-10-10T07:09:04.230Z,11.75
2022-10-10T07:10:04.326Z,11.75
2022-10-10T07:11:04.233Z,11.75
2022-10-10T07:12:04.224Z,11.75
2022-10-10T07:13:04.234Z,11.75
2022-10-10T07:14:04.395Z,11.75
2022-10-10T07:15:04.315Z,11.81
2022-10-10T07:16:04.311Z,11.88
2022-10-10T07:17:04.318Z,11.94
2022-10-10T07:18:04.321Z,12.06
2022-10-10T07:19:04.258Z,12.12
2022-10-10T07:20:04.396Z,12.25
2022-10-10T07:21:04.331Z,12.38
2022-10-10T07:22:04.312Z,12.50
2022-10-10T07:23:04.488Z,12.62
2022-10-10T07:24:03.519Z,12.81
2022-10-10T07:25:03.505Z,12.94
2022-10-10T07:26:03.589Z,13.12
2022-10-10T07:27:06.453Z,13.25
2022-10-10T07:28:03.585Z,13.44
2022-10-10T07:29:03.659Z,13.62
2022-10-10T07:30:03.668Z,13.81
2022-10-10T07:31:03.841Z,13.94
2022-10-10T07:32:03.834Z,14.12
2022-10-10T07:33:03.662Z,14.25
2022-10-10T07:34:03.667Z,14.44
2022-10-10T07:35:03.750Z,14.56
2022-10-10T07:36:03.754Z,14.69
2022-10-10T07:37:03.664Z,14.81
2022-10-10T07:38:03.824Z,15.00
2022-10-10T07:39:03.856Z,15.12
2022-10-10T07:40:03.997Z,15.19
2022-10-10T07:41:03.999Z,15.31
2022-10-10T07:42:04.084Z,15.44
2022-10-10T07:43:04.146Z,15.62
2022-10-10T07:44:04.069Z,15.75
2022-10-10T07:45:04.073Z,15.88
2022-10-10T07:46:04.968Z,16.00
2022-10-10T07:47:04.144Z,16.12
2022-10-10T07:48:04.232Z,16.25
2022-10-10T07:49:04.231Z,16.31
2022-10-10T07:50:04.233Z,16.44
2022-10-10T07:51:04.146Z,16.50
2022-10-10T07:52:04.237Z,16.56
2022-10-10T07:53:04.259Z,16.62
2022-10-10T07:54:04.312Z,16.56
2022-10-10T07:55:04.303Z,16.50
2022-10-10T07:56:04.399Z,16.50
2022-10-10T07:57:04.478Z,16.44
2022-10-10T07:58:04.402Z,16.44
2022-10-10T07:59:04.303Z,16.38
2022-10-10T08:00:04.472Z,16.38
2022-10-10T08:01:03.600Z,16.38
2022-10-10T08:02:03.743Z,16.44
2022-10-10T08:03:03.615Z,16.44
2022-10-10T08:04:03.670Z,16.50
2022-10-10T08:05:03.755Z,16.50
2022-10-10T08:06:03.754Z,16.50
2022-10-10T08:07:03.745Z,16.50
2022-10-10T08:08:03.748Z,16.56
2022-10-10T08:09:03.833Z,16.56
2022-10-10T08:10:03.834Z,16.56
2022-10-10T08:11:03.997Z,16.50
2022-10-10T08:12:03.912Z,16.50
2022-10-10T08:13:03.834Z,16.50
2022-10-10T08:14:03.834Z,16.44
2022-10-10T08:15:03.897Z,16.44
2022-10-10T08:16:03.838Z,16.44
2022-10-10T08:17:03.823Z,16.50
2022-10-10T08:18:03.912Z,16.50
2022-10-10T08:19:04.212Z,16.56
2022-10-10T08:20:04.066Z,16.56
2022-10-10T08:21:04.160Z,16.56
2022-10-10T08:22:04.213Z,16.56
2022-10-10T08:23:04.161Z,16.56
2022-10-10T08:24:04.072Z,16.56
2022-10-10T08:25:04.073Z,16.50
2022-10-10T08:26:04.165Z,16.50
2022-10-10T08:27:04.157Z,16.56
2022-10-10T08:28:04.227Z,16.56
2022-10-10T08:29:04.404Z,16.50
2022-10-10T08:30:04.315Z,16.50
2022-10-10T08:31:06.042Z,16.44
2022-10-10T08:32:04.414Z,16.44
2022-10-10T08:33:04.389Z,16.44
2022-10-10T08:34:04.384Z,16.38
2022-10-10T08:35:04.475Z,16.38
2022-10-10T08:36:04.396Z,16.38
2022-10-10T08:37:04.485Z,16.38
2022-10-10T08:38:04.394Z,16.38
2022-10-10T08:39:04.389Z,16.31
2022-10-10T08:40:04.499Z,16.31
2022-10-10T08:41:03.596Z,16.31
2022-10-10T08:42:03.682Z,16.31
2022-10-10T08:43:03.524Z,16.31
2022-10-10T08:44:04.490Z,16.31
2022-10-10T08:45:04.487Z,16.31
2022-10-10T08:46:04.548Z,16.25
2022-10-10T08:47:03.519Z,16.25
2022-10-10T08:48:04.467Z,16.25
2022-10-10T08:49:03.516Z,16.25
2022-10-10T08:50:04.474Z,16.25
2022-10-10T08:51:03.510Z,16.25
2022-10-10T08:52:03.543Z,16.25
2022-10-10T08:53:03.672Z,16.19
2022-10-10T08:54:03.510Z,16.19
2022-10-10T08:55:03.526Z,16.19
2022-10-10T08:56:03.677Z,16.19
2022-10-10T08:57:03.600Z,16.12
2022-10-10T08:58:04.476Z,16.12
2022-10-10T08:59:03.647Z,16.06
2022-10-10T09:00:03.603Z,16.06
2022-10-10T09:01:03.735Z,16.06
2022-10-10T09:02:17.485Z,16.00
2022-10-10T09:03:03.836Z,16.00
2022-10-10T09:04:03.829Z,16.00
2022-10-10T09:05:03.908Z,16.00
2022-10-10T09:06:03.820Z,15.94
2022-10-10T09:07:03.922Z,15.94
2022-10-10T09:08:03.829Z,15.94
2022-10-10T09:09:03.910Z,15.94
2022-10-10T09:10:03.825Z,16.00
2022-10-10T09:11:03.832Z,16.00
2022-10-10T09:12:03.828Z,16.00
2022-10-10T09:13:03.915Z,16.00
2022-10-10T09:14:03.903Z,16.00
2022-10-10T09:15:03.830Z,16.00
2022-10-10T09:16:03.911Z,16.00
2022-10-10T09:17:03.989Z,16.00
2022-10-10T09:18:04.068Z,16.00
2022-10-10T09:19:04.067Z,16.00
2022-10-10T09:20:04.078Z,16.00
2022-10-10T09:21:04.076Z,16.00
2022-10-10T09:22:03.999Z,16.00
2022-10-10T09:23:04.073Z,16.06
2022-10-10T09:24:03.983Z,16.06
2022-10-10T09:25:04.157Z,16.12
2022-10-10T09:26:06.397Z,16.12
2022-10-10T09:27:04.152Z,16.12
2022-10-10T09:28:04.072Z,16.12
2022-10-10T09:29:04.246Z,16.12
2022-10-10T09:30:04.146Z,16.12
2022-10-10T09:31:04.310Z,16.12
2022-10-10T09:32:04.479Z,16.12
2022-10-10T09:33:04.407Z,16.12
2022-10-10T09:34:03.502Z,16.19
2022-10-10T09:35:03.586Z,16.19
2022-10-10T09:36:03.629Z,16.19
2022-10-10T09:37:03.764Z,16.19
2022-10-10T09:38:03.760Z,16.19
2022-10-10T09:39:03.748Z,16.19
2022-10-10T09:40:03.765Z,16.19
2022-10-10T09:41:03.829Z,16.25
2022-10-10T09:42:03.744Z,16.25
2022-10-10T09:43:03.908Z,16.25
2022-10-10T09:44:03.902Z,16.25
2022-10-10T09:45:03.832Z,16.31
2022-10-10T09:46:03.745Z,16.31
2022-10-10T09:47:03.783Z,16.31
2022-10-10T09:48:03.839Z,16.31
2022-10-10T09:49:03.847Z,16.31
2022-10-10T09:51:03.740Z,16.38
2022-10-10T09:52:03.770Z,16.38
2022-10-10T09:53:03.678Z,16.38
2022-10-10T09:54:03.666Z,16.38
2022-10-10T09:55:03.841Z,16.38
2022-10-10T09:56:03.671Z,16.44
2022-10-10T09:57:03.775Z,16.44
2022-10-10T09:58:03.832Z,16.44
2022-10-10T09:59:03.847Z,16.44
2022-10-10T10:00:04.554Z,16.44
2022-10-10T10:01:03.848Z,16.44
2022-10-10T10:02:03.915Z,16.44
2022-10-10T10:03:03.827Z,16.50
2022-10-10T10:04:11.263Z,16.50
2022-10-10T10:05:03.907Z,16.50
2022-10-10T10:06:04.001Z,16.56
2022-10-10T10:07:04.011Z,16.56
2022-10-10T10:08:03.909Z,16.56
2022-10-10T10:09:04.011Z,16.56
2022-10-10T10:10:04.171Z,16.62
2022-10-10T10:11:04.148Z,16.62
2022-10-10T10:12:04.168Z,16.62
2022-10-10T10:13:04.225Z,16.62
2022-10-10T10:14:04.305Z,16.69
2022-10-10T10:15:04.460Z,16.69
2022-10-10T10:16:04.303Z,16.69
2022-10-10T10:17:04.465Z,16.75
2022-10-10T10:18:03.499Z,16.75
2022-10-10T10:19:03.506Z,16.75
2022-10-10T10:20:05.539Z,16.75
2022-10-10T10:21:03.511Z,16.81
2022-10-10T10:22:03.671Z,16.88
2022-10-10T10:23:03.748Z,16.81
2022-10-10T10:24:03.914Z,16.88
2022-10-10T10:25:03.823Z,16.88
2022-10-10T10:26:03.906Z,16.88
2022-10-10T10:27:03.909Z,16.88
2022-10-10T10:28:04.000Z,16.94
2022-10-10T10:29:03.992Z,16.94
2022-10-10T10:30:03.906Z,17.00
2022-10-10T10:31:04.076Z,17.06
2022-10-10T10:32:04.231Z,17.12
2022-10-10T10:33:04.230Z,17.19
2022-10-10T10:34:04.236Z,17.19
2022-10-10T10:35:04.235Z,17.19
2022-10-10T10:36:04.318Z,17.25
2022-10-10T10:37:04.317Z,17.25
2022-10-10T10:38:04.397Z,17.31
2022-10-10T10:39:03.514Z,17.31
2022-10-10T10:40:03.670Z,17.31
2022-10-10T10:41:03.513Z,17.31
2022-10-10T10:42:03.585Z,17.31
2022-10-10T10:43:03.680Z,17.31
2022-10-10T10:44:03.774Z,17.31
2022-10-10T10:45:03.749Z,17.38
2022-10-10T10:46:03.845Z,17.38
2022-10-10T10:47:03.835Z,17.38
2022-10-10T10:48:03.915Z,17.38
2022-10-10T10:49:03.912Z,17.44
2022-10-10T10:50:04.077Z,17.44
2022-10-10T10:51:03.987Z,17.44
2022-10-10T10:52:03.986Z,17.44
2022-10-10T10:53:04.002Z,17.50
2022-10-10T10:54:03.986Z,17.44
2022-10-10T10:55:03.907Z,17.44
2022-10-10T10:56:03.994Z,17.44
2022-10-10T10:57:06.531Z,17.50
2022-10-10T10:58:37.556Z,17.50
2022-10-10T10:59:23.923Z,17.50
2022-10-10T11:00:21.195Z,17.50
2022-10-10T11:01:20.035Z,17.56
2022-10-10T11:02:04.023Z,17.56
2022-10-10T11:03:20.789Z,17.56
2022-10-10T11:05:16.746Z,17.56
2022-10-10T11:05:21.492Z,17.62
2022-10-10T11:06:03.845Z,17.62
2022-10-10T11:07:18.186Z,17.62
2022-10-10T11:08:03.816Z,17.69
2022-10-10T11:09:03.906Z,17.69
2022-10-10T11:10:03.905Z,17.69
2022-10-10T11:11:04.029Z,17.69
2022-10-10T11:12:04.600Z,17.69
2022-10-10T11:13:04.157Z,17.75
2022-10-10T11:14:04.157Z,17.75
2022-10-10T11:15:04.161Z,17.75
2022-10-10T11:16:07.348Z,17.75
2022-10-10T11:17:04.080Z,17.75
2022-10-10T11:18:04.146Z,17.81
2022-10-10T11:19:04.234Z,17.81
2022-10-10T11:20:04.178Z,17.81
2022-10-10T11:21:04.174Z,17.81
2022-10-10T11:22:04.251Z,17.81
2022-10-10T11:23:08.783Z,17.81
2022-10-10T11:24:04.309Z,17.75
2022-10-10T11:25:03.668Z,17.75
2022-10-10T11:26:03.782Z,17.75
2022-10-10T11:27:03.908Z,17.75
2022-10-10T11:28:03.835Z,17.75
2022-10-10T11:29:04.088Z,17.75
2022-10-10T11:30:03.828Z,17.75
2022-10-10T11:31:03.921Z,17.81
2022-10-10T11:32:04.078Z,17.81
2022-10-10T11:33:04.156Z,17.81
2022-10-10T11:34:04.230Z,17.88
2022-10-10T11:35:04.230Z,17.88
2022-10-10T11:36:04.283Z,17.88
2022-10-10T11:37:04.150Z,17.88
2022-10-10T11:38:04.227Z,17.88
2022-10-10T11:39:04.236Z,17.94
2022-10-10T11:40:04.243Z,17.94
2022-10-10T11:41:04.230Z,17.94
2022-10-10T11:42:04.225Z,17.94
2022-10-10T11:43:04.242Z,18.00
2022-10-10T11:44:04.239Z,18.00
2022-10-10T11:45:04.311Z,18.00
2022-10-10T11:46:04.781Z,18.00
2022-10-10T11:47:03.504Z,18.00
2022-10-10T11:48:03.515Z,18.00
2022-10-10T11:49:03.586Z,18.00
2022-10-10T11:50:03.586Z,18.06
2022-10-10T11:51:03.594Z,18.06
2022-10-10T11:52:28.828Z,18.06
2022-10-10T11:53:03.588Z,18.06
2022-10-10T11:54:03.676Z,18.06
2022-10-10T11:55:03.702Z,18.12
2022-10-10T11:56:04.093Z,18.12
2022-10-10T11:57:03.826Z,18.12
2022-10-10T11:58:03.749Z,18.19
2022-10-10T11:59:03.916Z,18.19
2022-10-10T12:00:04.025Z,18.25
2022-10-10T12:01:03.901Z,18.25
2022-10-10T12:02:03.992Z,18.25
2022-10-10T12:03:04.061Z,18.25
2022-10-10T12:04:03.991Z,18.25
2022-10-10T12:05:04.150Z,18.25
2022-10-10T12:06:04.610Z,18.31
2022-10-10T12:07:04.406Z,18.31
2022-10-10T12:08:04.316Z,18.38
2022-10-10T12:09:04.308Z,18.31
2022-10-10T12:10:04.312Z,18.31
2022-10-10T12:11:04.416Z,18.38
2022-10-10T12:12:04.243Z,18.38
2022-10-10T12:13:04.306Z,18.44
2022-10-10T12:14:03.759Z,18.44
2022-10-10T12:15:03.582Z,18.44
2022-10-10T12:16:03.943Z,18.38
2022-10-10T12:17:03.743Z,18.44
2022-10-10T12:18:03.666Z,18.44
2022-10-10T12:19:03.836Z,18.44
2022-10-10T12:20:03.830Z,18.44
2022-10-10T12:21:03.996Z,18.50
2022-10-10T12:22:03.984Z,18.50
2022-10-10T12:23:03.988Z,18.50
2022-10-10T12:24:03.987Z,18.50
2022-10-10T12:25:04.151Z,18.50
2022-10-10T12:26:04.405Z,18.50
2022-10-10T12:27:04.307Z,18.50
2022-10-10T12:28:04.311Z,18.56
2022-10-10T12:29:05.599Z,18.56
2022-10-10T12:30:03.675Z,18.56
2022-10-10T12:31:03.898Z,18.56
2022-10-10T12:32:03.608Z,18.56
2022-10-10T12:33:03.579Z,18.62
2022-10-10T12:34:03.594Z,18.62
2022-10-10T12:35:03.759Z,18.62
2022-10-10T12:36:04.032Z,18.62
2022-10-10T12:37:07.345Z,18.62
2022-10-10T12:38:03.745Z,18.62
2022-10-10T12:39:03.822Z,18.62
2022-10-10T12:40:03.923Z,18.69
2022-10-10T12:41:04.341Z,18.69
2022-10-10T12:42:04.261Z,18.75
2022-10-10T12:43:04.244Z,18.88
2022-10-10T12:44:04.153Z,19.12
2022-10-10T12:45:04.227Z,19.06
2022-10-10T12:46:04.232Z,19.06
2022-10-10T12:47:06.710Z,19.06
2022-10-10T12:48:06.185Z,19.00
2022-10-10T12:49:04.467Z,19.00
2022-10-10T12:50:03.508Z,19.00
2022-10-10T12:51:03.964Z,18.94
2022-10-10T12:52:03.581Z,18.94
2022-10-10T12:53:03.606Z,19.00
2022-10-10T12:54:03.583Z,19.00
2022-10-10T12:55:06.652Z,19.00
2022-10-10T12:56:03.677Z,19.00
2022-10-10T12:57:03.706Z,18.94
2022-10-10T12:58:03.585Z,18.94
2022-10-10T12:59:03.669Z,19.00
2022-10-10T13:00:03.671Z,19.00
2022-10-10T13:01:04.047Z,19.00
2022-10-10T13:02:03.966Z,19.00
2022-10-10T13:03:04.067Z,19.00
2022-10-10T13:04:04.237Z,19.00
2022-10-10T13:05:04.148Z,19.00
2022-10-10T13:06:04.062Z,19.00
2022-10-10T13:07:04.231Z,19.00
2022-10-10T13:08:04.253Z,18.94